Portada
METAR-TAF:

METAR-TAF

Aeroports :

Scilly, Anglaterra

latitud: 49-55N, longitud: 006-18W, altitud: 31 m

Observació

L'informe es va fer fa 39 minuts, a les 09:50 UTC
Vent 26 kt del Sud-Oest
Temperatura 10°C
Humitat 76%
Pressió 1025 hPa
Visibilitat 10 km o més
Núvols disperses a una alçada de 2200 ft

METAR: EGHE 210950Z 23026KT 9999 SCT022 10/06 Q1025

Hora: 10:29 (10:29 UTC)

Pronòstic

L'informe es va fer fa 2 hores i 24 minuts, a les 08:05 UTC
Pronòstic vàlid del 21 a les 09 UTC al 21 a les 17 UTC
Vent 20 kt del Oest/Sud-Oest amb ràfegues de 30 kt
Visibilitat 10 km o més
Núvols disperses a una alçada de 2500 ft
Evolucionant progressivament
l' 21 a les 09 UTC al 21 a les 12 UTC
Vent 30 kt del Oest/Sud-Oest amb ràfegues de 40 kt

TAF: EGHE 210805Z 2109/2117 24020G30KT 9999 SCT025 BECMG 2109/2112 25030G40KT

Observacions i pronòstics meteorològics de més de 4000 aeroports (METAR i TAF).

Les estacions disponibles són els punts grocs i vermells al mapa.

Posi el ratolí al punt desitjat per veure el nom de l'estació.

Feu clic per veure les observacions i els pronòstics meteorològics.

Per canviar el mapa: feu clic els botons verds amb una creu de color negre per apropar; al botó verd amb un guió per allunyar la imatge; o en les fletxes verdes per a mapes adjacents.


METAR-TAF: